^^
Station Historical Data
Daily Summary for April 26, 2017 Units:  English    Metric   Both
« Previous Day
Next Day »
Daily Weekly Monthly Yearly Custom
  High: Low: Average:
Temperature: 67.2 °F 51.5 °F 58.6 °F
Dew Point: 58.1 °F 50.0 °F 54.3 °F
Humidity: 95 % 72 % 86 %
Wind Speed: 10.4 mph 0.0 mph 1.8 mph
Wind Gust: 16.1 mph - -
Wind:- - NE
Pressure: 29.85 in 29.75 in -
Precipitation: 0.05 in    
Historical Graphs
 
 
Tabular Data for April 26, 2017
Time Temperature Dew Point Pressure Wind Wind Speed Wind Gust Humidity Rainfall Rate (Hourly) solar Conditions
00:05 52.8 °F 51.4 °F 29.82 in NE 5.1 mph 9.2 mph 95 % 0.03 in 0.0 W/m2 RA
00:10 52.8 °F 51.4 °F 29.82 in NE 5.8 mph 9.2 mph 95 % 0.03 in 0.0 W/m2 RA
00:15 52.8 °F 51.4 °F 29.82 in NE 5.3 mph 9.2 mph 95 % 0.03 in 0.0 W/m2 RA
00:20 52.8 °F 51.4 °F 29.81 in NE 2.3 mph 5.8 mph 95 % 0.04 in 0.0 W/m2 RA
00:25 52.8 °F 51.4 °F 29.81 in NE 2.8 mph 3.5 mph 95 % 0.04 in 0.0 W/m2 RA
00:30 52.7 °F 51.3 °F 29.81 in NNE 4.2 mph 8.1 mph 95 % 0.04 in 0.0 W/m2
00:35 52.6 °F 51.2 °F 29.81 in NE 7.8 mph 10.4 mph 95 % 0.04 in 0.0 W/m2
00:40 52.6 °F 51.2 °F 29.80 in NNE 7.0 mph 13.8 mph 95 % 0.04 in 0.0 W/m2
00:45 52.5 °F 50.8 °F 29.80 in NNE 3.3 mph 5.8 mph 94 % 0.04 in 0.0 W/m2
00:50 52.5 °F 50.8 °F 29.80 in NNE 2.7 mph 4.6 mph 94 % 0.03 in 0.0 W/m2
00:55 52.4 °F 50.7 °F 29.80 in NE 1.1 mph 5.0 mph 94 % 0.03 in 0.0 W/m2
01:00 52.4 °F 50.7 °F 29.80 in NNE 3.0 mph 5.8 mph 94 % 0.02 in 0.0 W/m2
01:05 52.3 °F 50.9 °F 29.79 in NNE 2.2 mph 5.8 mph 95 % 0.02 in 0.0 W/m2
01:10 52.3 °F 50.9 °F 29.79 in NNE 0.1 mph 3.5 mph 95 % 0.01 in 0.0 W/m2
01:15 52.2 °F 50.8 °F 29.79 in NNE 5.9 mph 9.2 mph 95 % 0.01 in 0.0 W/m2
01:20 52.1 °F 50.7 °F 29.79 in NE 4.3 mph 8.1 mph 95 % 0.00 in 0.0 W/m2 CLR
01:25 52.1 °F 50.7 °F 29.78 in NE 2.6 mph 4.6 mph 95 % 0.00 in 0.0 W/m2 CLR
01:30 52.0 °F 50.6 °F 29.78 in NNE 9.0 mph 12.7 mph 95 % 0.00 in 0.0 W/m2 CLR
01:35 51.9 °F 50.5 °F 29.78 in NE 1.4 mph 5.8 mph 95 % 0.00 in 0.0 W/m2 CLR
01:40 51.8 °F 50.1 °F 29.78 in NE 6.4 mph 11.5 mph 94 % 0.00 in 0.0 W/m2 CLR
01:45 51.8 °F 50.1 °F 29.78 in NE 2.0 mph 5.0 mph 94 % 0.00 in 0.0 W/m2 CLR
01:50 51.8 °F 50.1 °F 29.77 in NE 4.6 mph 15.0 mph 94 % 0.00 in 0.0 W/m2 CLR
01:55 51.8 °F 50.4 °F 29.77 in NNE 5.5 mph 11.5 mph 95 % 0.00 in 0.0 W/m2 CLR
02:00 51.8 °F 50.4 °F 29.77 in NE 3.9 mph 9.0 mph 95 % 0.00 in 0.0 W/m2 CLR
02:05 51.8 °F 50.1 °F 29.77 in NE 3.3 mph 11.5 mph 94 % 0.00 in 0.0 W/m2 CLR
02:10 51.7 °F 50.3 °F 29.77 in NE 0.4 mph 3.5 mph 95 % 0.00 in 0.0 W/m2 CLR
02:15 51.7 °F 50.0 °F 29.77 in NNE 4.1 mph 8.1 mph 94 % 0.00 in 0.0 W/m2 CLR
02:20 51.7 °F 50.3 °F 29.77 in NNE 10.4 mph 16.1 mph 95 % 0.00 in 0.0 W/m2 CLR
02:25 51.7 °F 50.0 °F 29.77 in NE 6.2 mph 12.7 mph 94 % 0.01 in 0.0 W/m2 RA
02:30 51.6 °F 50.2 °F 29.77 in NNE 3.5 mph 4.6 mph 95 % 0.01 in 0.0 W/m2 RA
02:35 51.6 °F 50.2 °F 29.76 in NNE 3.4 mph 5.8 mph 95 % 0.02 in 0.0 W/m2 RA
02:40 51.6 °F 50.2 °F 29.76 in NE 1.8 mph 3.5 mph 95 % 0.02 in 0.0 W/m2 RA
02:45 51.5 °F 50.1 °F 29.76 in NE 0.6 mph 4.6 mph 95 % 0.02 in 0.0 W/m2
02:50 51.5 °F 50.1 °F 29.76 in NNE 7.1 mph 11.5 mph 95 % 0.02 in 0.0 W/m2
02:55 51.5 °F 50.1 °F 29.76 in NE 4.9 mph 4.9 mph 95 % 0.02 in 0.0 W/m2
03:00 51.5 °F 50.1 °F 29.76 in NE 6.2 mph 11.5 mph 95 % 0.02 in 0.0 W/m2
03:05 51.5 °F 50.1 °F 29.76 in NNE 5.8 mph 10.4 mph 95 % 0.02 in 0.0 W/m2
03:10 51.5 °F 50.1 °F 29.75 in NE 3.8 mph 6.0 mph 95 % 0.02 in 0.0 W/m2
03:15 51.5 °F 50.1 °F 29.76 in NE 6.5 mph 10.4 mph 95 % 0.02 in 0.0 W/m2
03:20 51.5 °F 50.1 °F 29.76 in NE 3.1 mph 5.8 mph 95 % 0.02 in 0.0 W/m2
03:28 51.5 °F 50.1 °F 29.76 in NNE 6.8 mph 10.4 mph 95 % 0.01 in 0.0 W/m2
03:33 51.5 °F 50.1 °F 29.76 in NE 4.1 mph 12.7 mph 95 % 0.00 in 0.0 W/m2 CLR
03:38 51.5 °F 50.1 °F 29.76 in NE 1.9 mph 4.0 mph 95 % 0.00 in 0.0 W/m2 CLR
03:43 51.5 °F 50.1 °F 29.76 in NNE 2.2 mph 5.0 mph 95 % 0.00 in 0.0 W/m2 CLR
03:53 51.5 °F 50.1 °F 29.75 in NE 4.2 mph 10.4 mph 95 % 0.00 in 0.0 W/m2 CLR
03:58 51.5 °F 50.1 °F 29.75 in NE 2.4 mph 9.2 mph 95 % 0.01 in 0.0 W/m2 RA
04:03 51.5 °F 50.1 °F 29.75 in NE 2.4 mph 3.5 mph 95 % 0.01 in 0.0 W/m2 RA
04:08 51.5 °F 50.1 °F 29.75 in NNE 1.0 mph 8.1 mph 95 % 0.01 in 0.0 W/m2
04:13 51.5 °F 50.1 °F 29.75 in NNE 0.2 mph 2.3 mph 95 % 0.01 in 0.0 W/m2
04:18 51.5 °F 50.1 °F 29.75 in NE 0.6 mph 3.5 mph 95 % 0.01 in 0.0 W/m2
04:23 51.5 °F 50.1 °F 29.75 in NE 3.5 mph 8.1 mph 95 % 0.01 in 0.0 W/m2
04:28 51.5 °F 50.1 °F 29.75 in Calm     95 % 0.01 in 0.0 W/m2
04:38 51.6 °F 50.2 °F 29.75 in NNE 0.6 mph 5.8 mph 95 % 0.01 in 0.0 W/m2
04:43 51.6 °F 50.2 °F 29.75 in Calm     95 % 0.01 in 0.0 W/m2
04:48 51.6 °F 50.2 °F 29.75 in NE 4.3 mph 9.0 mph 95 % 0.01 in 0.0 W/m2
04:53 51.6 °F 50.2 °F 29.75 in NNE 3.7 mph 5.8 mph 95 % 0.01 in 0.0 W/m2
04:58 51.6 °F 50.2 °F 29.75 in NE 5.0 mph 9.2 mph 95 % 0.00 in 0.0 W/m2 CLR
05:03 51.6 °F 50.2 °F 29.75 in NE 7.0 mph 10.4 mph 95 % 0.00 in 0.0 W/m2 CLR
05:08 51.6 °F 50.2 °F 29.75 in NE 1.2 mph 3.5 mph 95 % 0.00 in 0.0 W/m2 CLR
05:13 51.6 °F 50.2 °F 29.75 in NE 4.3 mph 9.2 mph 95 % 0.00 in 0.0 W/m2 CLR
05:18 51.7 °F 50.3 °F 29.75 in NNE 2.5 mph 4.6 mph 95 % 0.00 in 0.0 W/m2 CLR
05:23 51.7 °F 50.3 °F 29.75 in NNE 6.4 mph 10.4 mph 95 % 0.00 in 0.0 W/m2 CLR
05:28 51.7 °F 50.3 °F 29.75 in NNE 4.2 mph 9.2 mph 95 % 0.00 in 0.0 W/m2 CLR
05:33 51.7 °F 50.3 °F 29.75 in NE 6.6 mph 10.4 mph 95 % 0.00 in 0.0 W/m2 CLR
05:38 51.7 °F 50.3 °F 29.75 in NE 6.1 mph 10.4 mph 95 % 0.00 in 0.0 W/m2 CLR
05:43 51.7 °F 50.3 °F 29.75 in NNE 3.1 mph 4.6 mph 95 % 0.00 in 0.0 W/m2 CLR
05:48 51.8 °F 50.4 °F 29.75 in NNE 4.4 mph 9.0 mph 95 % 0.00 in 0.0 W/m2 CLR
05:53 51.8 °F 50.4 °F 29.75 in NE 3.3 mph 9.2 mph 95 % 0.00 in 0.0 W/m2 CLR
05:58 51.9 °F 50.5 °F 29.75 in NE 1.3 mph 4.6 mph 95 % 0.00 in 0.0 W/m2 CLR
06:03 51.9 °F 50.5 °F 29.75 in NE 4.7 mph 6.9 mph 95 % 0.00 in 0.0 W/m2 CLR
06:08 52.0 °F 50.6 °F 29.75 in NNE 5.4 mph 13.8 mph 95 % 0.00 in 0.0 W/m2 CLR
06:13 52.1 °F 50.7 °F 29.75 in NNE 4.2 mph 9.2 mph 95 % 0.00 in 0.0 W/m2 CLR
06:18 52.2 °F 50.8 °F 29.75 in NNE 3.7 mph 10.0 mph 95 % 0.00 in 0.0 W/m2 CLR
06:23 52.2 °F 50.8 °F 29.75 in North 3.8 mph 8.1 mph 95 % 0.00 in 0.0 W/m2 CLR
06:28 52.4 °F 51.0 °F 29.75 in NNE 2.5 mph 4.6 mph 95 % 0.00 in 5.0 W/m2 CLR
06:33 52.4 °F 51.0 °F 29.75 in NNE 3.6 mph 5.8 mph 95 % 0.00 in 9.0 W/m2 CLR
06:38 52.5 °F 51.1 °F 29.75 in NNE 2.1 mph 5.8 mph 95 % 0.00 in 9.0 W/m2 CLR
06:43 52.6 °F 51.2 °F 29.75 in NNE 0.4 mph 4.6 mph 95 % 0.00 in 7.0 W/m2 CLR
06:48 52.6 °F 51.2 °F 29.76 in NE 1.7 mph 9.2 mph 95 % 0.00 in 7.0 W/m2 CLR
06:53 52.7 °F 51.3 °F 29.76 in NE 1.3 mph 4.6 mph 95 % 0.00 in 7.0 W/m2 OVC
06:58 52.8 °F 51.4 °F 29.76 in NE 0.4 mph 9.2 mph 95 % 0.00 in 9.0 W/m2 OVC
07:03 52.8 °F 51.4 °F 29.76 in NNE 1.1 mph 3.5 mph 95 % 0.00 in 11.0 W/m2 OVC
07:08 52.8 °F 51.4 °F 29.76 in NE 1.2 mph 3.5 mph 95 % 0.00 in 18.0 W/m2 OVC
07:13 52.8 °F 51.4 °F 29.76 in NNE 2.8 mph 4.6 mph 95 % 0.00 in 28.0 W/m2 OVC
07:18 53.0 °F 51.6 °F 29.76 in NNE 0.3 mph 4.6 mph 95 % 0.00 in 26.0 W/m2 OVC
07:23 53.0 °F 51.6 °F 29.75 in NE 2.8 mph 3.5 mph 95 % 0.00 in 25.0 W/m2 OVC
07:28 53.1 °F 51.7 °F 29.75 in NNE 1.4 mph 4.6 mph 95 % 0.00 in 35.0 W/m2 OVC
07:34 53.2 °F 51.8 °F 29.76 in NNE 3.9 mph 4.6 mph 95 % 0.00 in 28.0 W/m2 OVC
07:39 53.2 °F 51.8 °F 29.76 in NNE 6.1 mph 6.1 mph 95 % 0.00 in 26.0 W/m2 OVC
07:44 53.2 °F 51.8 °F 29.76 in NNE 4.6 mph 9.2 mph 95 % 0.00 in 25.0 W/m2 OVC
07:49 53.3 °F 51.9 °F 29.77 in NE 2.6 mph 5.0 mph 95 % 0.00 in 28.0 W/m2 OVC
07:59 53.4 °F 52.0 °F 29.77 in NE 1.0 mph 9.2 mph 95 % 0.00 in 33.0 W/m2 OVC
08:04 53.4 °F 52.0 °F 29.77 in NE 1.6 mph 4.6 mph 95 % 0.00 in 46.0 W/m2 OVC
08:05 53.5 °F 52.1 °F 29.77 in NE 0.2 mph 2.3 mph 95 % 0.00 in 47.0 W/m2 OVC
08:10 53.6 °F 51.9 °F 29.77 in NNE 4.1 mph 7.0 mph 94 % 0.00 in 62.0 W/m2 OVC
08:15 53.7 °F 52.0 °F 29.77 in NE 3.5 mph 5.8 mph 94 % 0.00 in 76.0 W/m2 OVC
08:20 53.8 °F 52.1 °F 29.77 in NE 4.3 mph 6.9 mph 94 % 0.00 in 93.0 W/m2 BKN
08:25 54.0 °F 52.3 °F 29.77 in NE 3.4 mph 4.6 mph 94 % 0.00 in 81.0 W/m2 OVC
08:30 54.1 °F 52.4 °F 29.77 in NNE 3.7 mph 8.1 mph 94 % 0.00 in 70.0 W/m2 OVC
08:35 54.2 °F 52.5 °F 29.77 in NNE 3.5 mph 4.6 mph 94 % 0.00 in 70.0 W/m2 OVC
08:40 54.4 °F 52.7 °F 29.77 in NNE 1.1 mph 4.0 mph 94 % 0.00 in 79.0 W/m2 OVC
08:45 54.7 °F 53.0 °F 29.77 in NE 1.2 mph 3.5 mph 94 % 0.00 in 100.0 W/m2 OVC
08:50 54.8 °F 52.8 °F 29.77 in ENE 2.6 mph 3.5 mph 93 % 0.00 in 120.0 W/m2 BKN
08:55 54.9 °F 52.9 °F 29.77 in NNE 3.1 mph 4.6 mph 93 % 0.00 in 116.0 W/m2 BKN
09:00 54.9 °F 52.9 °F 29.77 in NE 1.6 mph 4.6 mph 93 % 0.00 in 98.0 W/m2 OVC
09:05 55.2 °F 53.2 °F 29.77 in NNE 0.8 mph 4.0 mph 93 % 0.00 in 139.0 W/m2 BKN
09:10 55.3 °F 53.3 °F 29.77 in NE 5.1 mph 8.1 mph 93 % 0.00 in 148.0 W/m2 BKN
09:15 55.4 °F 53.1 °F 29.77 in NE 2.3 mph 4.6 mph 92 % 0.00 in 171.0 W/m2 BKN
09:20 55.7 °F 53.4 °F 29.77 in NE 2.3 mph 4.6 mph 92 % 0.00 in 186.0 W/m2 BKN
09:25 55.8 °F 53.5 °F 29.77 in NE 3.5 mph 4.6 mph 92 % 0.00 in 262.0 W/m2 SCT
09:30 56.3 °F 54.0 °F 29.77 in NNE 4.7 mph 8.1 mph 92 % 0.00 in 299.0 W/m2 SCT
09:35 56.5 °F 53.9 °F 29.77 in NNE 4.3 mph 6.0 mph 91 % 0.00 in 179.0 W/m2 BKN
09:40 56.3 °F 53.7 °F 29.78 in NE 4.5 mph 6.0 mph 91 % 0.00 in 123.0 W/m2 OVC
09:45 56.3 °F 53.7 °F 29.77 in NNE 4.5 mph 9.2 mph 91 % 0.00 in 167.0 W/m2 OVC
09:50 56.5 °F 53.9 °F 29.78 in NNE 5.0 mph 8.1 mph 91 % 0.00 in 241.0 W/m2 BKN
09:55 56.7 °F 53.8 °F 29.78 in NE 1.5 mph 3.5 mph 90 % 0.00 in 137.0 W/m2 OVC
10:00 56.6 °F 53.7 °F 29.78 in NNE 3.5 mph 4.6 mph 90 % 0.00 in 151.0 W/m2 OVC
10:05 56.8 °F 53.9 °F 29.78 in NNE 5.4 mph 8.1 mph 90 % 0.00 in 237.0 W/m2 BKN
10:10 56.9 °F 54.0 °F 29.78 in NE 5.4 mph 9.2 mph 90 % 0.00 in 292.0 W/m2 BKN
10:15 57.2 °F 54.0 °F 29.78 in Calm   2.3 mph 89 % 0.00 in 272.0 W/m2 BKN
10:20 57.4 °F 54.2 °F 29.79 in NNE 6.2 mph 9.0 mph 89 % 0.00 in 271.0 W/m2 BKN
10:25 57.5 °F 54.3 °F 29.79 in NNE 4.8 mph 9.2 mph 89 % 0.00 in 272.0 W/m2 BKN
10:30 57.6 °F 54.1 °F 29.79 in NNE 1.9 mph 5.8 mph 88 % 0.00 in 343.0 W/m2 SCT
10:35 58.0 °F 54.5 °F 29.79 in NE 1.0 mph 3.5 mph 88 % 0.00 in 334.0 W/m2 BKN
10:40 58.2 °F 54.7 °F 29.79 in NE 1.4 mph 5.8 mph 88 % 0.00 in 410.0 W/m2 BKN
10:45 58.5 °F 54.6 °F 29.79 in ENE 0.1 mph   87 % 0.00 in 445.0 W/m2 SCT
10:50 58.7 °F 54.5 °F 29.79 in NE 0.4 mph   86 % 0.00 in 432.0 W/m2 SCT
10:55 58.8 °F 54.6 °F 29.79 in Calm     86 % 0.00 in 343.0 W/m2 SCT
11:00 58.9 °F 54.4 °F 29.79 in NNE 1.5 mph 4.6 mph 85 % 0.00 in 410.0 W/m2 SCT
11:05 59.3 °F 54.8 °F 29.80 in Calm     85 % 0.00 in 524.0 W/m2 CLR
11:10 59.7 °F 54.9 °F 29.80 in NE 0.1 mph   84 % 0.00 in 302.0 W/m2 SCT
11:15 59.7 °F 54.9 °F 29.80 in NNE 2.2 mph 5.8 mph 84 % 0.00 in 193.0 W/m2 OVC
11:20 59.4 °F 54.6 °F 29.80 in Calm   2.3 mph 84 % 0.00 in 174.0 W/m2 OVC
11:26 59.4 °F 54.9 °F 29.80 in NNE 1.2 mph 3.5 mph 85 % 0.00 in 251.0 W/m2 BKN
11:31 59.6 °F 54.8 °F 29.80 in Calm     84 % 0.00 in 232.0 W/m2 BKN
11:36 59.6 °F 54.8 °F 29.80 in NNE 1.4 mph 3.5 mph 84 % 0.00 in 243.0 W/m2 BKN
11:46 59.7 °F 54.9 °F 29.80 in NNE 3.3 mph 4.6 mph 84 % 0.00 in 185.0 W/m2 OVC
11:51 59.7 °F 54.9 °F 29.81 in NNE 3.0 mph 4.6 mph 84 % 0.00 in 149.0 W/m2 OVC
11:56 59.7 °F 54.9 °F 29.80 in NNE 1.9 mph 3.5 mph 84 % 0.00 in 241.0 W/m2 OVC
12:01 60.2 °F 55.3 °F 29.80 in NNE 1.4 mph 3.5 mph 84 % 0.00 in 608.0 W/m2 FEW
12:06 60.6 °F 55.4 °F 29.80 in Calm     83 % 0.00 in 418.0 W/m2 SCT
12:11 61.0 °F 55.5 °F 29.81 in NNE 2.6 mph 4.6 mph 82 % 0.00 in 336.0 W/m2 BKN
12:16 60.6 °F 55.4 °F 29.80 in Calm   2.3 mph 83 % 0.00 in 260.0 W/m2 BKN
12:21 60.9 °F 55.7 °F 29.80 in Calm     83 % 0.00 in 248.0 W/m2 BKN
12:26 60.5 °F 55.0 °F 29.80 in East 0.9 mph 3.5 mph 82 % 0.00 in 329.0 W/m2 BKN
12:31 60.7 °F 55.5 °F 29.79 in East 0.6 mph 3.5 mph 83 % 0.00 in 429.0 W/m2 BKN
12:36 61.2 °F 55.7 °F 29.79 in NNE 2.1 mph 3.5 mph 82 % 0.00 in 445.0 W/m2 SCT
12:41 60.8 °F 55.3 °F 29.79 in Calm     82 % 0.00 in 392.0 W/m2 BKN
12:46 60.9 °F 55.0 °F 29.79 in Calm   3.5 mph 81 % 0.00 in 480.0 W/m2 SCT
12:51 61.4 °F 55.9 °F 29.78 in ENE 1.2 mph 3.5 mph 82 % 0.00 in 552.0 W/m2 SCT
12:56 61.8 °F 55.9 °F 29.78 in Calm   2.0 mph 81 % 0.00 in 573.0 W/m2 FEW
13:01 61.6 °F 56.0 °F 29.79 in NE 0.8 mph 7.0 mph 82 % 0.00 in 512.0 W/m2 SCT
13:06 61.9 °F 56.3 °F 29.79 in NNE 1.9 mph 4.6 mph 82 % 0.00 in 396.0 W/m2 SCT
13:11 62.0 °F 56.1 °F 29.79 in NNE 2.2 mph 3.5 mph 81 % 0.00 in 408.0 W/m2 BKN
13:16 62.0 °F 56.1 °F 29.79 in NNE 5.3 mph 6.0 mph 81 % 0.00 in 383.0 W/m2 BKN
13:21 62.0 °F 56.1 °F 29.79 in NNE 0.8 mph 4.0 mph 81 % 0.00 in 260.0 W/m2 BKN
13:26 61.7 °F 55.8 °F 29.79 in NNE 4.2 mph 8.1 mph 81 % 0.00 in 251.0 W/m2 BKN
13:31 61.6 °F 55.7 °F 29.79 in NNE 0.2 mph 1.2 mph 81 % 0.00 in 211.0 W/m2 OVC
13:36 61.9 °F 56.0 °F 29.78 in North 3.1 mph 3.5 mph 81 % 0.00 in 229.0 W/m2 OVC
13:41 61.9 °F 56.0 °F 29.78 in NNE 4.5 mph 6.9 mph 81 % 0.00 in 186.0 W/m2 OVC
13:46 61.8 °F 55.6 °F 29.79 in NNE 4.4 mph 5.8 mph 80 % 0.00 in 204.0 W/m2 OVC
13:51 61.8 °F 55.9 °F 29.79 in Calm     81 % 0.00 in 181.0 W/m2 OVC
13:56 62.0 °F 56.1 °F 29.78 in NNE 3.1 mph 4.6 mph 81 % 0.00 in 218.0 W/m2 OVC
14:01 62.1 °F 56.2 °F 29.78 in NNE 1.9 mph 4.6 mph 81 % 0.00 in 264.0 W/m2 BKN
14:06 61.9 °F 55.7 °F 29.78 in Calm     80 % 0.00 in 195.0 W/m2 OVC
14:11 62.2 °F 56.3 °F 29.78 in Calm     81 % 0.00 in 153.0 W/m2 OVC
14:16 62.1 °F 56.2 °F 29.78 in NNE 2.9 mph 4.0 mph 81 % 0.00 in 237.0 W/m2 OVC
14:21 62.0 °F 56.1 °F 29.78 in Calm     81 % 0.00 in 218.0 W/m2 BKN
14:26 62.1 °F 56.2 °F 29.78 in North 1.5 mph 4.0 mph 81 % 0.00 in 279.0 W/m2 BKN
14:28 62.3 °F 56.7 °F 29.78 in Calm   1.2 mph 82 % 0.00 in 304.0 W/m2 BKN
14:33 62.5 °F 56.6 °F 29.78 in NNE 2.4 mph 3.5 mph 81 % 0.00 in 373.0 W/m2 BKN
14:38 62.8 °F 56.9 °F 29.77 in Calm     81 % 0.00 in 487.0 W/m2 SCT
14:43 62.8 °F 56.5 °F 29.78 in Calm   1.0 mph 80 % 0.00 in 338.0 W/m2 BKN
14:48 63.1 °F 57.2 °F 29.78 in NNE 1.2 mph 3.5 mph 81 % 0.00 in 383.0 W/m2 BKN
14:53 62.8 °F 56.2 °F 29.78 in Calm     79 % 0.00 in 383.0 W/m2 SCT
14:58 63.2 °F 56.6 °F 29.77 in Calm     79 % 0.00 in 376.0 W/m2 BKN
15:03 63.1 °F 56.5 °F 29.77 in Calm     79 % 0.00 in 325.0 W/m2 BKN
15:08 63.4 °F 57.1 °F 29.77 in NNE 2.2 mph 4.6 mph 80 % 0.00 in 483.0 W/m2 SCT
15:13 63.7 °F 57.1 °F 29.77 in NNE 5.4 mph 8.1 mph 79 % 0.00 in 306.0 W/m2 BKN
15:18 63.2 °F 56.2 °F 29.77 in Calm     78 % 0.00 in 290.0 W/m2 BKN
15:23 63.2 °F 56.2 °F 29.76 in Calm     78 % 0.00 in 396.0 W/m2 SCT
15:28 63.4 °F 56.8 °F 29.77 in Calm     79 % 0.00 in 615.0 W/m2 FEW
15:33 64.3 °F 57.6 °F 29.76 in Calm     79 % 0.00 in 1018.0 W/m2 CLR
15:38 64.2 °F 56.8 °F 29.76 in Calm     77 % 0.00 in 450.0 W/m2 FEW
15:43 64.2 °F 56.8 °F 29.76 in NE 1.8 mph 3.0 mph 77 % 0.00 in 424.0 W/m2 SCT
15:48 64.0 °F 57.0 °F 29.77 in Calm     78 % 0.00 in 399.0 W/m2 FEW
15:53 63.6 °F 56.3 °F 29.77 in Calm     77 % 0.00 in 413.0 W/m2 SCT
15:58 64.1 °F 57.1 °F 29.77 in NNE 1.6 mph 4.6 mph 78 % 0.00 in 531.0 W/m2 CLR
16:03 64.2 °F 56.8 °F 29.77 in NNE 0.6 mph 3.0 mph 77 % 0.00 in 193.0 W/m2 BKN
16:08 64.4 °F 57.0 °F 29.77 in Calm     77 % 0.00 in 461.0 W/m2 SCT
16:13 64.2 °F 56.5 °F 29.77 in Calm     76 % 0.00 in 274.0 W/m2 BKN
16:18 64.6 °F 57.6 °F 29.77 in Calm     78 % 0.00 in 554.0 W/m2 CLR
16:23 64.9 °F 57.2 °F 29.77 in Calm   2.3 mph 76 % 0.00 in 420.0 W/m2 FEW
16:28 65.0 °F 57.2 °F 29.77 in Calm     76 % 0.00 in 144.0 W/m2 SCT
16:33 65.2 °F 57.4 °F 29.77 in Calm   1.2 mph 76 % 0.00 in 438.0 W/m2 SCT
16:38 65.0 °F 56.9 °F 29.77 in Calm   2.3 mph 75 % 0.00 in 281.0 W/m2 SCT
16:43 65.6 °F 57.8 °F 29.77 in Calm   1.2 mph 76 % 0.00 in 601.0 W/m2 CLR
16:48 66.0 °F 57.5 °F 29.77 in Calm     74 % 0.00 in 566.0 W/m2 CLR
16:53 66.1 °F 57.6 °F 29.77 in Calm     74 % 0.00 in 545.0 W/m2 CLR
16:58 66.3 °F 57.4 °F 29.77 in SSE 0.3 mph 5.8 mph 73 % 0.00 in 501.0 W/m2 CLR
17:03 66.0 °F 57.1 °F 29.77 in Calm   3.5 mph 73 % 0.00 in 490.0 W/m2 CLR
17:08 66.0 °F 57.5 °F 29.77 in SSE 0.3 mph 2.0 mph 74 % 0.00 in 468.0 W/m2 CLR
17:13 65.9 °F 57.4 °F 29.77 in Calm     74 % 0.00 in 457.0 W/m2 CLR
17:18 66.3 °F 57.4 °F 29.77 in SSE 0.1 mph   73 % 0.00 in 439.0 W/m2 CLR
17:23 66.3 °F 57.4 °F 29.77 in Calm     73 % 0.00 in 431.0 W/m2 CLR
17:28 66.6 °F 58.1 °F 29.78 in Calm     74 % 0.00 in 397.0 W/m2 CLR
17:33 66.6 °F 57.3 °F 29.78 in Calm     72 % 0.00 in 388.0 W/m2 CLR
17:35 66.4 °F 57.5 °F 29.78 in Calm   2.3 mph 73 % 0.00 in 374.0 W/m2 CLR
17:40 66.7 °F 57.8 °F 29.78 in South 0.5 mph 3.5 mph 73 % 0.00 in 367.0 W/m2 CLR
17:45 66.7 °F 57.4 °F 29.78 in Calm     72 % 0.00 in 334.0 W/m2 CLR
17:50 66.8 °F 57.5 °F 29.78 in Calm     72 % 0.00 in 318.0 W/m2 CLR
17:55 66.7 °F 57.4 °F 29.78 in Calm     72 % 0.00 in 306.0 W/m2 CLR
18:00 67.0 °F 57.7 °F 29.78 in Calm   2.3 mph 72 % 0.00 in 290.0 W/m2 CLR
18:06 67.0 °F 57.7 °F 29.77 in Calm     72 % 0.00 in 269.0 W/m2 CLR
18:11 66.9 °F 57.6 °F 29.77 in Calm     72 % 0.00 in 255.0 W/m2 CLR
18:16 67.2 °F 57.9 °F 29.77 in Calm   1.2 mph 72 % 0.00 in 239.0 W/m2 CLR
18:21 67.0 °F 57.7 °F 29.77 in Calm     72 % 0.00 in 213.0 W/m2 CLR
18:26 67.0 °F 57.7 °F 29.77 in Calm     72 % 0.00 in 195.0 W/m2 CLR
18:31 67.0 °F 57.7 °F 29.77 in Calm     72 % 0.00 in 174.0 W/m2 CLR
18:36 67.2 °F 57.9 °F 29.77 in Calm     72 % 0.00 in 156.0 W/m2 CLR
18:41 67.0 °F 57.7 °F 29.77 in Calm     72 % 0.00 in 139.0 W/m2 CLR
18:46 66.9 °F 58.0 °F 29.77 in Calm     73 % 0.00 in 118.0 W/m2 FEW
18:51 67.0 °F 58.1 °F 29.77 in Calm   1.2 mph 73 % 0.00 in 100.0 W/m2 FEW
18:56 66.8 °F 57.9 °F 29.77 in Calm     73 % 0.00 in 84.0 W/m2 FEW
19:01 66.7 °F 57.8 °F 29.77 in Calm     73 % 0.00 in 58.0 W/m2 SCT
19:06 66.6 °F 57.7 °F 29.77 in Calm     73 % 0.00 in 46.0 W/m2 BKN
19:11 66.5 °F 57.6 °F 29.77 in Calm     73 % 0.00 in 37.0 W/m2 BKN
19:16 66.4 °F 57.9 °F 29.78 in Calm     74 % 0.00 in 26.0 W/m2 BKN
19:21 66.4 °F 57.5 °F 29.78 in Calm     73 % 0.00 in 23.0 W/m2 BKN
19:26 66.4 °F 57.5 °F 29.78 in Calm   1.2 mph 73 % 0.00 in 19.0 W/m2 BKN
19:31 66.3 °F 57.8 °F 29.78 in East 2.0 mph 3.5 mph 74 % 0.00 in 16.0 W/m2 BKN
19:36 65.9 °F 57.7 °F 29.79 in Calm     75 % 0.00 in 12.0 W/m2 BKN
19:41 65.7 °F 57.6 °F 29.79 in Calm     75 % 0.00 in 9.0 W/m2 BKN
19:46 65.5 °F 57.7 °F 29.79 in Calm     76 % 0.00 in 5.0 W/m2 BKN
19:51 65.1 °F 57.3 °F 29.79 in Calm     76 % 0.00 in 0.0 W/m2 BKN
19:56 64.8 °F 57.4 °F 29.79 in Calm     77 % 0.00 in 0.0 W/m2 BKN
20:01 64.6 °F 57.6 °F 29.79 in Calm     78 % 0.00 in 0.0 W/m2 BKN
20:06 64.1 °F 57.1 °F 29.79 in Calm     78 % 0.00 in 0.0 W/m2 BKN
20:11 63.9 °F 57.3 °F 29.80 in Calm     79 % 0.00 in 0.0 W/m2 BKN
20:16 63.6 °F 57.0 °F 29.79 in Calm     79 % 0.00 in 0.0 W/m2 BKN
20:21 63.2 °F 56.9 °F 29.79 in Calm     80 % 0.00 in 0.0 W/m2 BKN
20:26 62.8 °F 56.9 °F 29.79 in Calm     81 % 0.00 in 0.0 W/m2 BKN
20:31 62.7 °F 57.1 °F 29.80 in Calm     82 % 0.00 in 0.0 W/m2 BKN
20:36 62.4 °F 56.8 °F 29.80 in Calm     82 % 0.00 in 0.0 W/m2 BKN
20:41 62.1 °F 56.9 °F 29.80 in Calm     83 % 0.00 in 0.0 W/m2 BKN
20:46 62.0 °F 56.8 °F 29.80 in Calm     83 % 0.00 in 0.0 W/m2 BKN
20:51 62.0 °F 57.1 °F 29.80 in Calm     84 % 0.00 in 0.0 W/m2 BKN
20:56 62.1 °F 56.9 °F 29.81 in Calm     83 % 0.00 in 0.0 W/m2 BKN
21:01 62.1 °F 56.9 °F 29.81 in Calm     83 % 0.00 in 0.0 W/m2 BKN
21:06 62.0 °F 56.8 °F 29.81 in Calm     83 % 0.00 in 0.0 W/m2 BKN
21:11 61.8 °F 56.9 °F 29.81 in Calm     84 % 0.00 in 0.0 W/m2 BKN
21:16 61.7 °F 56.8 °F 29.82 in Calm     84 % 0.00 in 0.0 W/m2 BKN
21:21 61.6 °F 56.7 °F 29.82 in Calm     84 % 0.00 in 0.0 W/m2 BKN
21:26 61.5 °F 56.6 °F 29.82 in Calm     84 % 0.00 in 0.0 W/m2 BKN
21:31 61.5 °F 56.6 °F 29.82 in Calm     84 % 0.00 in 0.0 W/m2 BKN
21:36 61.4 °F 56.8 °F 29.82 in Calm     85 % 0.00 in 0.0 W/m2 BKN
21:41 61.2 °F 56.7 °F 29.82 in Calm     85 % 0.00 in 0.0 W/m2 BKN
21:46 61.0 °F 56.5 °F 29.82 in Calm     85 % 0.00 in 0.0 W/m2 BKN
21:51 60.9 °F 56.4 °F 29.82 in Calm     85 % 0.00 in 0.0 W/m2 BKN
21:57 60.9 °F 56.4 °F 29.83 in Calm     85 % 0.00 in 0.0 W/m2 BKN
22:02 60.7 °F 56.2 °F 29.83 in Calm     85 % 0.00 in 0.0 W/m2 BKN
22:07 60.6 °F 56.4 °F 29.83 in Calm     86 % 0.00 in 0.0 W/m2 BKN
22:12 60.7 °F 56.5 °F 29.83 in Calm     86 % 0.00 in 0.0 W/m2 BKN
22:17 60.8 °F 56.6 °F 29.84 in Calm     86 % 0.00 in 0.0 W/m2 BKN
22:22 60.8 °F 56.6 °F 29.84 in Calm     86 % 0.00 in 0.0 W/m2 BKN
22:27 60.9 °F 56.7 °F 29.84 in Calm     86 % 0.00 in 0.0 W/m2 BKN
22:32 61.0 °F 56.8 °F 29.84 in Calm     86 % 0.00 in 0.0 W/m2 BKN
22:37 61.1 °F 56.6 °F 29.84 in Calm     85 % 0.00 in 0.0 W/m2 BKN
22:42 61.1 °F 56.6 °F 29.84 in Calm     85 % 0.00 in 0.0 W/m2 BKN
22:47 61.2 °F 56.7 °F 29.84 in Calm     85 % 0.00 in 0.0 W/m2 BKN
22:52 61.3 °F 56.8 °F 29.84 in Calm     85 % 0.00 in 0.0 W/m2 BKN
22:54 61.3 °F 56.8 °F 29.84 in Calm     85 % 0.00 in 0.0 W/m2 BKN
23:00 61.1 °F 56.6 °F 29.84 in East 0.3 mph 2.0 mph 85 % 0.00 in 0.0 W/m2 BKN
23:05 61.2 °F 56.7 °F 29.84 in Calm     85 % 0.00 in 0.0 W/m2 BKN
23:10 61.2 °F 56.7 °F 29.84 in Calm     85 % 0.00 in 0.0 W/m2 BKN
23:15 61.3 °F 56.8 °F 29.84 in Calm     85 % 0.00 in 0.0 W/m2 BKN
23:20 61.4 °F 56.8 °F 29.84 in Calm     85 % 0.00 in 0.0 W/m2 BKN
23:25 61.5 °F 56.6 °F 29.84 in Calm     84 % 0.00 in 0.0 W/m2 BKN
23:30 61.5 °F 56.6 °F 29.84 in Calm   2.0 mph 84 % 0.00 in 0.0 W/m2 BKN
23:35 61.5 °F 56.6 °F 29.84 in Calm     84 % 0.00 in 0.0 W/m2 BKN
23:40 61.4 °F 56.5 °F 29.84 in Calm     84 % 0.00 in 0.0 W/m2 BKN
23:45 61.4 °F 56.5 °F 29.84 in South 0.6 mph 3.5 mph 84 % 0.00 in 0.0 W/m2 BKN
23:50 61.4 °F 56.5 °F 29.84 in Calm     84 % 0.00 in 0.0 W/m2 BKN
23:55 61.3 °F 56.4 °F 29.85 in Calm     84 % 0.00 in 0.0 W/m2 BKN
Air Products Campus Weather
Compliments of Weather Underground - 3.25 mb